createdAt,value
2023-05-23T00:00:14.163Z,2.35
2023-05-23T00:03:08.177Z,2.90
2023-05-23T00:05:35.227Z,2.72
2023-05-23T00:08:02.202Z,2.92
2023-05-23T00:10:28.897Z,2.60
2023-05-23T00:12:55.538Z,2.45
2023-05-23T00:15:22.510Z,2.60
2023-05-23T00:17:49.177Z,2.70
2023-05-23T00:20:16.876Z,2.42
2023-05-23T00:22:43.465Z,2.75
2023-05-23T00:25:10.347Z,2.60
2023-05-23T00:27:37.055Z,2.67
2023-05-23T00:30:04.778Z,2.53
2023-05-23T00:32:31.451Z,2.60
2023-05-23T00:34:58.131Z,2.28
2023-05-23T00:37:24.886Z,2.83
2023-05-23T00:39:51.546Z,2.60
2023-05-23T00:42:18.157Z,2.58
2023-05-23T00:44:44.794Z,2.70
2023-05-23T00:47:13.876Z,2.83
2023-05-23T00:49:40.724Z,2.78
2023-05-23T00:52:07.525Z,2.78
2023-05-23T00:54:34.709Z,2.60
2023-05-23T00:57:01.357Z,2.53
2023-05-23T00:59:28.170Z,2.60
2023-05-23T01:01:56.361Z,2.60
2023-05-23T01:04:26.721Z,2.60
2023-05-23T01:06:55.380Z,2.58
2023-05-23T01:09:23.765Z,2.53
2023-05-23T01:12:09.217Z,2.97
2023-05-23T01:17:12.533Z,2.60
2023-05-23T01:19:56.745Z,2.60
2023-05-23T01:22:48.619Z,2.45
2023-05-23T01:25:31.453Z,2.58
2023-05-23T01:28:01.302Z,2.45
2023-05-23T01:30:32.204Z,2.90
2023-05-23T01:32:59.362Z,2.50
2023-05-23T01:35:27.358Z,2.50
2023-05-23T01:37:55.457Z,2.67
2023-05-23T01:40:23.430Z,2.60
2023-05-23T01:42:50.505Z,2.33
2023-05-23T01:45:18.312Z,2.60
2023-05-23T01:47:46.559Z,2.95
2023-05-23T01:50:13.276Z,2.70
2023-05-23T01:52:40.062Z,2.60
2023-05-23T01:55:10.011Z,2.58
2023-05-23T01:57:38.237Z,2.78
2023-05-23T02:00:06.829Z,2.70
2023-05-23T02:05:07.035Z,2.58
2023-05-23T02:07:33.668Z,2.80
2023-05-23T02:10:00.462Z,2.90
2023-05-23T02:12:28.534Z,2.80
2023-05-23T02:14:56.501Z,2.60
2023-05-23T02:17:24.319Z,2.50
2023-05-23T02:19:51.120Z,2.80
2023-05-23T02:22:18.078Z,3.10
2023-05-23T02:24:44.757Z,2.70
2023-05-23T02:27:13.149Z,2.92
2023-05-23T02:29:39.838Z,2.75
2023-05-23T02:32:06.732Z,2.78
2023-05-23T02:34:33.431Z,3.05
2023-05-23T02:37:00.170Z,2.80
2023-05-23T02:39:27.522Z,2.70
2023-05-23T02:41:55.044Z,2.97
2023-05-23T02:44:21.819Z,3.10
2023-05-23T02:46:48.471Z,2.92
2023-05-23T02:49:15.176Z,2.80
2023-05-23T02:51:41.828Z,3.00
2023-05-23T02:54:08.576Z,2.60
2023-05-23T02:56:38.498Z,2.65
2023-05-23T02:59:05.822Z,2.85
2023-05-23T03:01:32.466Z,2.70
2023-05-23T03:03:59.219Z,2.95
2023-05-23T03:06:27.578Z,2.55
2023-05-23T03:08:54.320Z,3.00
2023-05-23T03:11:22.631Z,2.85
2023-05-23T03:13:49.509Z,2.85
2023-05-23T03:16:16.177Z,2.88
2023-05-23T03:18:42.892Z,2.75
2023-05-23T03:21:09.789Z,2.83
2023-05-23T03:23:36.799Z,3.15
2023-05-23T03:26:03.970Z,2.97
2023-05-23T03:28:33.722Z,2.53
2023-05-23T03:31:00.343Z,3.03
2023-05-23T03:33:26.934Z,2.80
2023-05-23T03:35:53.621Z,3.10
2023-05-23T03:38:20.722Z,2.95
2023-05-23T03:40:47.327Z,2.45
2023-05-23T03:43:15.286Z,2.88
2023-05-23T03:45:43.372Z,2.80
2023-05-23T03:48:13.572Z,2.75
2023-05-23T03:50:41.830Z,2.88
2023-05-23T03:53:08.769Z,2.95
2023-05-23T03:55:35.984Z,2.97
2023-05-23T03:58:02.755Z,2.78
2023-05-23T04:00:29.400Z,3.00
2023-05-23T04:02:58.791Z,2.92
2023-05-23T04:05:25.758Z,3.03
2023-05-23T04:07:53.830Z,2.55
2023-05-23T04:10:20.614Z,2.90
2023-05-23T04:12:47.941Z,3.20
2023-05-23T04:15:17.867Z,3.10
2023-05-23T04:17:52.772Z,2.65
2023-05-23T04:20:19.720Z,2.88
2023-05-23T04:22:46.341Z,3.10
2023-05-23T04:25:13.961Z,3.30
2023-05-23T04:27:48.252Z,2.92
2023-05-23T04:30:17.832Z,3.40
2023-05-23T04:32:44.787Z,3.38
2023-05-23T04:35:14.318Z,3.40
2023-05-23T04:37:42.547Z,3.10
2023-05-23T04:40:09.815Z,3.20
2023-05-23T04:42:56.870Z,3.13
2023-05-23T04:45:34.532Z,2.83
2023-05-23T04:48:21.817Z,2.90
2023-05-23T04:50:51.169Z,3.05
2023-05-23T04:53:18.028Z,2.92
2023-05-23T04:55:45.785Z,3.33
2023-05-23T04:58:16.233Z,3.55
2023-05-23T05:00:43.495Z,3.42
2023-05-23T05:03:12.032Z,3.00
2023-05-23T05:05:42.661Z,3.30
2023-05-23T05:08:09.251Z,3.03
2023-05-23T05:10:36.080Z,3.58
2023-05-23T05:13:02.764Z,3.60
2023-05-23T05:15:37.539Z,4.45
2023-05-23T05:18:04.427Z,3.40
2023-05-23T05:20:31.076Z,3.60
2023-05-23T05:22:58.305Z,3.10
2023-05-23T05:25:25.152Z,3.40
2023-05-23T05:27:52.595Z,3.38
2023-05-23T05:30:20.727Z,3.20
2023-05-23T05:32:52.174Z,3.45
2023-05-23T05:35:18.855Z,3.65
2023-05-23T05:37:46.653Z,3.72
2023-05-23T05:40:13.554Z,3.28
2023-05-23T05:42:42.694Z,3.85
2023-05-23T05:45:11.511Z,3.70
2023-05-23T05:47:39.505Z,3.67
2023-05-23T05:50:08.413Z,4.35
2023-05-23T05:52:39.769Z,3.63
2023-05-23T05:55:07.915Z,3.95
2023-05-23T05:57:35.460Z,5.97
2023-05-23T06:00:08.846Z,6.13
2023-05-23T06:02:51.345Z,5.00
2023-05-23T06:05:28.924Z,4.28
2023-05-23T06:07:55.795Z,4.00
2023-05-23T06:10:22.396Z,4.30
2023-05-23T06:12:50.396Z,4.15
2023-05-23T06:15:17.703Z,4.78
2023-05-23T06:17:45.340Z,4.22
2023-05-23T06:20:12.434Z,5.13
2023-05-23T06:22:42.670Z,5.40
2023-05-23T06:25:09.521Z,5.72
2023-05-23T06:27:36.909Z,5.55
2023-05-23T06:30:07.019Z,6.75
2023-05-23T06:32:33.828Z,6.60
2023-05-23T06:35:00.605Z,5.90
2023-05-23T06:37:27.272Z,5.88
2023-05-23T06:39:53.914Z,6.75
2023-05-23T06:42:20.571Z,6.57
2023-05-23T06:45:04.834Z,5.75
2023-05-23T06:47:32.505Z,7.05
2023-05-23T06:49:59.160Z,6.35
2023-05-23T06:52:25.771Z,6.68
2023-05-23T06:54:52.524Z,6.43
2023-05-23T06:57:20.304Z,6.65
2023-05-23T06:59:47.319Z,6.70
2023-05-23T07:02:15.023Z,5.70
2023-05-23T07:04:41.643Z,5.53
2023-05-23T07:07:15.792Z,5.63
2023-05-23T07:09:43.746Z,5.65
2023-05-23T07:12:16.651Z,5.13
2023-05-23T07:14:46.236Z,5.15
2023-05-23T07:17:13.851Z,5.15
2023-05-23T07:19:41.105Z,5.13
2023-05-23T07:22:07.702Z,5.05
2023-05-23T07:24:38.009Z,4.90
2023-05-23T07:27:06.546Z,5.20
2023-05-23T07:29:34.361Z,5.15
2023-05-23T07:32:01.284Z,5.30
2023-05-23T07:34:29.212Z,5.38
2023-05-23T07:36:59.335Z,4.85
2023-05-23T07:39:30.990Z,5.45
2023-05-23T07:41:59.936Z,4.68
2023-05-23T07:44:26.833Z,4.90
2023-05-23T07:46:54.190Z,4.70
2023-05-23T07:49:21.561Z,4.72
2023-05-23T07:51:48.289Z,5.22
2023-05-23T07:54:16.474Z,5.00
2023-05-23T07:56:45.153Z,4.88
2023-05-23T07:59:13.247Z,5.00
2023-05-23T08:01:40.672Z,4.93
2023-05-23T08:04:07.566Z,4.55
2023-05-23T08:06:45.797Z,4.50
2023-05-23T08:09:20.044Z,4.50
2023-05-23T08:11:51.094Z,5.00
2023-05-23T08:14:18.375Z,4.97
2023-05-23T08:16:53.605Z,5.05
2023-05-23T08:19:24.133Z,4.30
2023-05-23T08:21:53.131Z,5.28
2023-05-23T08:24:22.780Z,4.45
2023-05-23T08:26:50.442Z,4.90
2023-05-23T08:29:17.493Z,4.60
2023-05-23T08:31:45.354Z,5.22
2023-05-23T08:34:12.508Z,4.53
2023-05-23T08:36:40.376Z,4.97
2023-05-23T08:39:11.773Z,4.93
2023-05-23T08:41:47.416Z,4.32
2023-05-23T08:44:14.323Z,4.63
2023-05-23T08:46:49.864Z,4.47
2023-05-23T08:49:40.987Z,4.20
2023-05-23T08:52:10.297Z,4.20
2023-05-23T08:54:41.051Z,4.55
2023-05-23T08:57:07.887Z,4.30
2023-05-23T08:59:41.131Z,4.43
2023-05-23T09:02:12.443Z,4.15
2023-05-23T09:04:39.304Z,4.60
2023-05-23T09:07:12.891Z,4.45
2023-05-23T09:09:39.616Z,4.10
2023-05-23T09:12:10.233Z,4.22
2023-05-23T09:14:37.339Z,4.30
2023-05-23T09:17:07.373Z,4.40
2023-05-23T09:19:34.202Z,4.32
2023-05-23T09:22:14.194Z,4.03
2023-05-23T09:24:57.416Z,4.40
2023-05-23T09:27:24.593Z,4.13
2023-05-23T09:29:51.676Z,4.05
2023-05-23T09:32:21.247Z,4.18
2023-05-23T09:35:00.943Z,4.32
2023-05-23T09:37:31.387Z,3.63
2023-05-23T09:40:03.982Z,4.28
2023-05-23T09:42:34.259Z,4.32
2023-05-23T09:45:04.096Z,4.25
2023-05-23T09:47:31.831Z,4.47
2023-05-23T09:49:58.861Z,4.53
2023-05-23T09:52:26.315Z,3.90
2023-05-23T09:54:54.254Z,4.60
2023-05-23T09:57:23.138Z,4.20
2023-05-23T09:59:54.756Z,4.10
2023-05-23T10:02:59.507Z,4.20
2023-05-23T10:05:43.791Z,3.78
2023-05-23T10:08:19.227Z,4.07
2023-05-23T10:10:58.035Z,4.28
2023-05-23T10:13:26.834Z,3.95
2023-05-23T10:16:03.381Z,4.50
2023-05-23T10:18:30.556Z,3.72
2023-05-23T10:21:00.838Z,4.32
2023-05-23T10:23:28.769Z,3.83
2023-05-23T10:25:55.622Z,4.20
2023-05-23T10:28:22.346Z,4.10
2023-05-23T10:30:49.131Z,4.15
2023-05-23T10:33:17.017Z,4.40
2023-05-23T10:36:08.591Z,3.70
2023-05-23T10:38:46.792Z,4.15
2023-05-23T10:41:27.541Z,3.70
2023-05-23T10:44:11.696Z,3.67
2023-05-23T10:47:05.036Z,4.15
2023-05-23T10:49:41.846Z,3.80
2023-05-23T10:52:10.392Z,3.83
2023-05-23T10:54:43.110Z,3.92
2023-05-23T10:57:12.108Z,4.00
2023-05-23T10:59:39.269Z,4.03
2023-05-23T11:02:13.451Z,4.00
2023-05-23T11:04:40.617Z,4.03
2023-05-23T11:07:30.922Z,4.03
2023-05-23T11:10:16.710Z,3.88
2023-05-23T11:12:44.805Z,3.85
2023-05-23T11:15:17.199Z,3.40
2023-05-23T11:17:54.679Z,3.90
2023-05-23T11:20:24.420Z,3.70
2023-05-23T11:23:07.501Z,4.38
2023-05-23T11:25:43.021Z,3.95
2023-05-23T11:28:10.918Z,3.67
2023-05-23T11:30:38.272Z,3.67
2023-05-23T11:33:09.184Z,3.42
2023-05-23T11:35:36.452Z,3.60
2023-05-23T11:38:04.877Z,4.20
2023-05-23T11:40:36.785Z,3.90
2023-05-23T11:43:05.923Z,3.83
2023-05-23T11:45:33.917Z,3.65
2023-05-23T11:48:11.726Z,4.18
2023-05-23T11:50:52.982Z,3.67
2023-05-23T11:53:22.179Z,3.60
2023-05-23T11:55:53.682Z,3.67
2023-05-23T11:58:26.724Z,3.92
2023-05-23T12:00:59.086Z,3.80
2023-05-23T12:03:25.889Z,4.65
2023-05-23T12:05:52.697Z,4.05
2023-05-23T12:08:19.463Z,3.90
2023-05-23T12:11:04.152Z,4.07
2023-05-23T12:13:30.882Z,3.72
2023-05-23T12:15:59.726Z,3.90
2023-05-23T12:18:31.546Z,3.90
2023-05-23T12:21:03.128Z,3.92
2023-05-23T12:23:31.337Z,3.70
2023-05-23T12:25:59.900Z,3.92
2023-05-23T12:28:45.714Z,3.60
2023-05-23T12:31:19.546Z,3.80
2023-05-23T12:33:51.130Z,3.45
2023-05-23T12:36:26.202Z,3.40
2023-05-23T12:38:53.459Z,3.85
2023-05-23T12:41:20.841Z,3.88
2023-05-23T12:43:52.411Z,3.45
2023-05-23T12:46:20.462Z,3.78
2023-05-23T12:48:47.525Z,3.90
2023-05-23T12:51:15.060Z,3.78
2023-05-23T12:53:41.720Z,3.78
2023-05-23T12:56:08.541Z,3.55
2023-05-23T12:58:35.305Z,3.70
2023-05-23T13:01:02.655Z,3.55
2023-05-23T13:03:33.233Z,3.55
2023-05-23T13:06:00.283Z,3.38
2023-05-23T13:08:29.780Z,3.60
2023-05-23T13:10:57.128Z,4.05
2023-05-23T13:13:24.094Z,3.72
2023-05-23T13:15:51.637Z,4.40
2023-05-23T13:18:18.837Z,4.03
2023-05-23T13:20:46.494Z,4.05
2023-05-23T13:23:13.474Z,4.35
2023-05-23T13:25:40.321Z,4.50
2023-05-23T13:28:07.085Z,3.75
2023-05-23T13:30:34.395Z,4.40
2023-05-23T13:33:01.158Z,3.97
2023-05-23T13:35:27.854Z,4.47
2023-05-23T13:37:54.491Z,4.03
2023-05-23T13:40:21.963Z,3.53
2023-05-23T13:42:51.065Z,4.07
2023-05-23T13:45:18.908Z,4.22
2023-05-23T13:47:46.472Z,3.85
2023-05-23T13:50:13.198Z,4.35
2023-05-23T13:52:42.939Z,4.32
2023-05-23T13:55:11.004Z,4.30
2023-05-23T13:57:37.739Z,4.18
2023-05-23T14:00:05.461Z,3.83
2023-05-23T14:02:34.548Z,3.88
2023-05-23T14:05:01.503Z,4.35
2023-05-23T14:07:28.234Z,3.90
2023-05-23T14:09:54.873Z,3.63
2023-05-23T14:12:21.501Z,3.72
2023-05-23T14:14:48.313Z,3.83
2023-05-23T14:17:18.186Z,4.00
2023-05-23T14:19:45.753Z,3.95
2023-05-23T14:22:12.530Z,4.20
2023-05-23T14:24:39.192Z,3.63
2023-05-23T14:27:08.067Z,3.90
2023-05-23T14:29:36.285Z,4.07
2023-05-23T14:32:04.137Z,4.22
2023-05-23T14:34:30.911Z,4.25
2023-05-23T14:36:57.573Z,3.92
2023-05-23T14:39:25.581Z,3.90
2023-05-23T14:41:52.475Z,4.35
2023-05-23T14:44:19.490Z,3.80
2023-05-23T14:46:50.041Z,4.03
2023-05-23T14:49:17.550Z,3.92
2023-05-23T14:51:50.223Z,3.78
2023-05-23T14:54:17.465Z,3.95
2023-05-23T14:56:44.075Z,3.45
2023-05-23T14:59:11.065Z,3.75
2023-05-23T15:01:40.080Z,3.42
2023-05-23T15:04:09.123Z,3.47
2023-05-23T15:06:37.050Z,3.40
2023-05-23T15:09:04.231Z,3.17
2023-05-23T15:11:32.245Z,3.20
2023-05-23T15:13:59.604Z,3.90
2023-05-23T15:16:26.583Z,2.75
2023-05-23T15:18:53.458Z,3.38
2023-05-23T15:21:20.284Z,3.05
2023-05-23T15:23:46.956Z,2.83
2023-05-23T15:26:13.652Z,2.90
2023-05-23T15:28:40.300Z,2.80
2023-05-23T15:31:07.031Z,2.75
2023-05-23T15:33:33.715Z,3.00
2023-05-23T15:36:01.198Z,2.30
2023-05-23T15:38:27.912Z,2.20
2023-05-23T15:40:56.394Z,2.30
2023-05-23T15:43:24.864Z,2.20
2023-05-23T15:45:52.031Z,2.30
2023-05-23T15:48:18.840Z,2.30
2023-05-23T15:50:45.992Z,2.40
2023-05-23T15:53:12.756Z,2.28
2023-05-23T15:55:42.059Z,1.88
2023-05-23T15:58:10.104Z,1.85
2023-05-23T16:00:36.717Z,2.88
2023-05-23T16:03:03.470Z,2.53
2023-05-23T16:05:30.318Z,2.40
2023-05-23T16:07:57.091Z,2.38
2023-05-23T16:10:24.661Z,2.40
2023-05-23T16:12:51.579Z,2.30
2023-05-23T16:15:18.447Z,2.28
2023-05-23T16:17:45.378Z,2.00
2023-05-23T16:20:12.371Z,1.70
2023-05-23T16:22:39.154Z,2.00
2023-05-23T16:25:07.830Z,1.63
2023-05-23T16:27:34.579Z,1.75
2023-05-23T16:30:01.569Z,2.05
2023-05-23T16:32:28.902Z,1.83
2023-05-23T16:34:57.811Z,1.73
2023-05-23T16:37:24.522Z,1.92
2023-05-23T16:39:51.198Z,1.90
2023-05-23T16:42:17.931Z,2.25
2023-05-23T16:44:45.170Z,1.95
2023-05-23T16:47:11.940Z,1.70
2023-05-23T16:49:38.589Z,1.92
2023-05-23T16:52:05.458Z,2.10
2023-05-23T16:54:32.089Z,2.00
2023-05-23T16:57:01.567Z,1.83
2023-05-23T16:59:29.569Z,1.90
2023-05-23T17:01:56.413Z,1.60
2023-05-23T17:04:23.112Z,1.63
2023-05-23T17:06:50.125Z,1.80
2023-05-23T17:09:18.067Z,1.73
2023-05-23T17:11:44.923Z,1.60
2023-05-23T17:14:11.859Z,1.50
2023-05-23T17:16:38.768Z,1.75
2023-05-23T17:19:05.650Z,1.60
2023-05-23T17:21:32.873Z,1.60
2023-05-23T17:23:59.624Z,1.60
2023-05-23T17:26:27.224Z,1.45
2023-05-23T17:28:53.875Z,1.33
2023-05-23T17:31:20.971Z,1.25
2023-05-23T17:33:47.683Z,1.42
2023-05-23T17:36:14.343Z,1.60
2023-05-23T17:38:41.603Z,1.23
2023-05-23T17:41:08.288Z,1.48
2023-05-23T17:43:34.905Z,1.48
2023-05-23T17:46:01.574Z,1.48
2023-05-23T17:48:45.244Z,1.48
2023-05-23T17:51:13.545Z,1.38
2023-05-23T17:53:41.554Z,1.23
2023-05-23T17:56:09.239Z,1.35
2023-05-23T17:58:37.354Z,1.60
2023-05-23T18:01:04.726Z,1.30
2023-05-23T18:03:31.425Z,1.30
2023-05-23T18:05:58.198Z,1.58
2023-05-23T18:08:25.964Z,1.23
2023-05-23T18:10:52.640Z,1.15
2023-05-23T18:13:19.234Z,1.27
2023-05-23T18:15:45.959Z,1.35
2023-05-23T18:18:12.836Z,1.65
2023-05-23T18:20:39.868Z,1.30
2023-05-23T18:23:07.432Z,1.30
2023-05-23T18:25:34.367Z,1.38
2023-05-23T18:28:01.770Z,1.42
2023-05-23T18:30:29.083Z,1.55
2023-05-23T18:32:56.076Z,1.08
2023-05-23T18:35:22.977Z,1.40
2023-05-23T18:37:50.835Z,1.10
2023-05-23T18:40:17.518Z,1.08
2023-05-23T18:42:44.362Z,1.23
2023-05-23T18:45:11.060Z,1.38
2023-05-23T18:47:37.789Z,1.40
2023-05-23T18:50:04.704Z,1.02
2023-05-23T18:52:33.494Z,1.15
2023-05-23T18:55:00.199Z,1.00
2023-05-23T18:57:26.885Z,1.00
2023-05-23T18:59:54.387Z,1.30
2023-05-23T19:02:21.587Z,1.25
2023-05-23T19:04:48.318Z,1.23
2023-05-23T19:07:15.295Z,1.02
2023-05-23T19:09:41.974Z,1.20
2023-05-23T19:12:08.689Z,1.23
2023-05-23T19:14:35.453Z,1.10
2023-05-23T19:17:05.645Z,0.98
2023-05-23T19:19:36.586Z,1.10
2023-05-23T19:22:03.440Z,1.00
2023-05-23T19:24:30.133Z,1.10
2023-05-23T19:26:57.096Z,1.13
2023-05-23T19:29:23.725Z,0.90
2023-05-23T19:31:50.453Z,0.80
2023-05-23T19:34:17.174Z,0.90
2023-05-23T19:36:44.118Z,0.95
2023-05-23T19:39:12.450Z,1.20
2023-05-23T19:41:40.729Z,0.90
2023-05-23T19:44:07.658Z,0.93
2023-05-23T19:49:00.972Z,0.90
2023-05-23T19:51:27.633Z,1.00
2023-05-23T19:53:54.778Z,0.90
2023-05-23T19:56:25.807Z,0.75
2023-05-23T19:58:52.425Z,0.80
2023-05-23T20:01:19.118Z,0.88
2023-05-23T20:03:45.922Z,0.95
2023-05-23T20:06:12.625Z,0.80
2023-05-23T20:08:39.256Z,1.13
2023-05-23T20:11:05.939Z,0.88
2023-05-23T20:13:32.605Z,1.02
2023-05-23T20:15:59.330Z,0.70
2023-05-23T20:18:26.104Z,0.68
2023-05-23T20:20:53.162Z,0.88
2023-05-23T20:23:19.844Z,0.85
2023-05-23T20:25:46.504Z,0.77
2023-05-23T20:28:13.148Z,0.80
2023-05-23T20:30:39.778Z,0.65
2023-05-23T20:33:06.550Z,0.70
2023-05-23T20:35:33.210Z,0.60
2023-05-23T20:37:59.957Z,0.80
2023-05-23T20:40:29.755Z,0.80
2023-05-23T20:43:00.585Z,0.70
2023-05-23T20:45:27.680Z,0.75
2023-05-23T20:47:55.303Z,0.80
2023-05-23T20:50:22.584Z,0.50
2023-05-23T20:52:49.330Z,0.68
2023-05-23T20:55:16.051Z,0.80
2023-05-23T20:57:43.099Z,0.50
2023-05-23T21:00:11.700Z,0.70
2023-05-23T21:02:42.061Z,0.70
2023-05-23T21:05:10.125Z,0.75
2023-05-23T21:07:37.027Z,0.93
2023-05-23T21:10:04.076Z,0.95
2023-05-23T21:12:30.954Z,0.85
2023-05-23T21:14:58.225Z,0.88
2023-05-23T21:17:25.529Z,1.33
2023-05-23T21:19:52.328Z,0.90
2023-05-23T21:22:18.924Z,0.80
2023-05-23T21:24:46.103Z,0.93
2023-05-23T21:27:12.875Z,0.90
2023-05-23T21:29:39.739Z,0.70
2023-05-23T21:32:06.655Z,0.77
2023-05-23T21:34:33.439Z,0.88
2023-05-23T21:37:00.088Z,0.60
2023-05-23T21:39:36.082Z,1.13
2023-05-23T21:42:09.964Z,1.00
2023-05-23T21:44:37.877Z,0.88
2023-05-23T21:47:05.611Z,0.93
2023-05-23T21:49:33.822Z,0.80
2023-05-23T21:52:04.290Z,0.77
2023-05-23T21:54:31.110Z,0.70
2023-05-23T21:56:57.769Z,0.90
2023-05-23T21:59:24.503Z,0.70
2023-05-23T22:01:51.587Z,0.77
2023-05-23T22:04:21.236Z,0.43
2023-05-23T22:06:47.911Z,0.82
2023-05-23T22:09:15.281Z,0.80
2023-05-23T22:11:42.238Z,0.80
2023-05-23T22:14:08.919Z,0.70
2023-05-23T22:16:41.283Z,0.70
2023-05-23T22:19:10.326Z,0.70
2023-05-23T22:21:37.449Z,0.73
2023-05-23T22:24:04.763Z,0.57
2023-05-23T22:26:32.221Z,0.60
2023-05-23T22:28:59.040Z,0.50
2023-05-23T22:31:26.514Z,0.65
2023-05-23T22:33:53.447Z,0.60
2023-05-23T22:36:21.881Z,0.60
2023-05-23T22:38:48.635Z,0.60
2023-05-23T22:41:15.456Z,0.68
2023-05-23T22:43:42.210Z,0.60
2023-05-23T22:46:09.000Z,0.77
2023-05-23T22:48:35.754Z,0.50
2023-05-23T22:51:02.944Z,0.68
2023-05-23T22:53:29.915Z,1.10
2023-05-23T22:55:56.688Z,0.47
2023-05-23T22:58:23.408Z,0.40
2023-05-23T23:00:50.223Z,0.70
2023-05-23T23:03:17.136Z,0.82
2023-05-23T23:05:44.342Z,0.50
2023-05-23T23:08:12.012Z,0.60
2023-05-23T23:10:39.970Z,0.60
2023-05-23T23:13:07.015Z,0.65
2023-05-23T23:15:33.884Z,0.73
2023-05-23T23:18:01.129Z,0.47
2023-05-23T23:20:28.040Z,0.60
2023-05-23T23:22:54.718Z,0.57
2023-05-23T23:25:21.945Z,0.60
2023-05-23T23:27:48.727Z,0.70
2023-05-23T23:30:15.550Z,0.60
2023-05-23T23:32:42.311Z,0.50
2023-05-23T23:35:09.085Z,0.52
2023-05-23T23:37:35.909Z,0.65
2023-05-23T23:40:02.547Z,0.50
2023-05-23T23:42:29.182Z,0.60
2023-05-23T23:44:56.382Z,0.50
2023-05-23T23:47:23.143Z,0.50
2023-05-23T23:49:49.730Z,0.43
2023-05-23T23:52:16.441Z,0.32
2023-05-23T23:54:43.248Z,0.40
2023-05-23T23:57:13.596Z,0.55
2023-05-23T23:59:41.460Z,0.60
